This is the latest recevied weather packets stored in our database for station/object OK5TVR-5. If no packets are shown the sender has not sent any weather packets the latest 10 day(s).
| Time | Temp. | Humidity | Pressure | Rain* | Wind** | Luminosity | Snow |
|---|---|---|---|---|---|---|---|
| 1777228294 | 9.44° C | 50% | 1016.8 hPa | 0 mm | - | - | - |
| 1777228294 | 9.44° C | 50% | 1016.8 hPa | 0 mm | - | - | - |
| 1777228294 | 9.44° C | 50% | 1016.8 hPa | 0 mm | - | - | - |
| 1777227394 | 10.56° C | 46% | 1016.7 hPa | 0 mm | - | - | - |
| 1777227393 | 10.56° C | 46% | 1016.7 hPa | 0 mm | - | - | - |
| 1777226494 | 10.56° C | 47% | 1016.7 hPa | 0 mm | - | - | - |
| 1777226493 | 10.56° C | 47% | 1016.7 hPa | 0 mm | - | - | - |
| 1777226492 | 10.56° C | 47% | 1016.7 hPa | 0 mm | - | - | - |
| 1777225593 | 11.67° C | 46% | 1015.5 hPa | 0 mm | - | - | - |
| 1777225593 | 11.67° C | 46% | 1015.5 hPa | 0 mm | - | - | - |
| 1777224692 | 12.22° C | 44% | 1015.4 hPa | 0 mm | - | - | - |
| 1777224692 | 12.22° C | 44% | 1015.4 hPa | 0 mm | - | - | - |
| 1777223793 | 12.78° C | 44% | 1016.3 hPa | 0 mm | - | - | - |
| 1777223792 | 12.78° C | 44% | 1016.3 hPa | 0 mm | - | - | - |
| 1777222891 | 13.89° C | 40% | 1015.2 hPa | 0 mm | - | - | - |
| 1777221991 | 13.89° C | 39% | 1015.2 hPa | 0 mm | - | - | - |
| 1777221990 | 13.89° C | - | - | - | - | - | - |
| 1777221090 | 14.44° C | 42% | 1015.1 hPa | 0 mm | - | - | - |
| 1777221090 | 14.44° C | 42% | 1015.1 hPa | 0 mm | - | - | - |
| 1777220191 | 15° C | 41% | 1015.1 hPa | 0 mm | - | - | - |
| 1777220190 | 15° C | 41% | 1015.1 hPa | 0 mm | - | - | - |
| 1777220190 | 15° C | 41% | 1015.1 hPa | 0 mm | - | - | - |
| 1777219288 | 15.56° C | 41% | 1015 hPa | 0 mm | - | - | - |
| 1777219288 | 15.56° C | 41% | 1015 hPa | 0 mm | - | - | - |
| 1777218388 | 15.56° C | 30% | 1016 hPa | 0 mm | - | - | - |
* Rain latest hour (hover to see other rain measurements)
** Current wind speed in m/s (hover to see current wind gust speed)